sensor_id;sensor_type;location;lat;lon;timestamp;pressure;altitude;pressure_sealevel;temperature;humidity
56713;BME280;42589;45.536;9.032;2023-02-01T00:02:37;100143.94;;;9.97;40.81
56713;BME280;42589;45.536;9.032;2023-02-01T00:05:40;100116.81;;;9.93;40.65
56713;BME280;42589;45.536;9.032;2023-02-01T00:08:43;100119.59;;;9.72;41.17
56713;BME280;42589;45.536;9.032;2023-02-01T00:11:44;100129.38;;;10.01;40.60
56713;BME280;42589;45.536;9.032;2023-02-01T00:14:46;100127.00;;;10.08;40.60
56713;BME280;42589;45.536;9.032;2023-02-01T00:17:46;100131.22;;;9.81;40.98
56713;BME280;42589;45.536;9.032;2023-02-01T00:20:48;100126.88;;;10.09;39.71
56713;BME280;42589;45.536;9.032;2023-02-01T00:23:49;100115.53;;;10.07;40.00
56713;BME280;42589;45.536;9.032;2023-02-01T00:26:50;100117.50;;;9.95;40.59
56713;BME280;42589;45.536;9.032;2023-02-01T00:29:51;100127.00;;;10.08;40.39
56713;BME280;42589;45.536;9.032;2023-02-01T00:32:52;100132.47;;;9.96;40.68
56713;BME280;42589;45.536;9.032;2023-02-01T00:35:59;100124.63;;;9.75;40.96
56713;BME280;42589;45.536;9.032;2023-02-01T00:39:00;100096.13;;;9.68;40.97
56713;BME280;42589;45.536;9.032;2023-02-01T00:42:01;100110.88;;;9.22;41.53
56713;BME280;42589;45.536;9.032;2023-02-01T00:45:02;100119.75;;;9.71;40.76
56713;BME280;42589;45.536;9.032;2023-02-01T00:48:03;100121.94;;;8.96;41.95
56713;BME280;42589;45.536;9.032;2023-02-01T00:51:11;100110.06;;;9.50;40.85
56713;BME280;42589;45.536;9.032;2023-02-01T00:54:12;100116.38;;;9.98;39.49
56713;BME280;42589;45.536;9.032;2023-02-01T00:57:13;100136.78;;;9.88;39.98
56713;BME280;42589;45.536;9.032;2023-02-01T01:00:15;100118.19;;;10.07;39.94
56713;BME280;42589;45.536;9.032;2023-02-01T01:03:18;100107.00;;;10.13;39.54
56713;BME280;42589;45.536;9.032;2023-02-01T01:06:25;100105.47;;;10.01;40.13
56713;BME280;42589;45.536;9.032;2023-02-01T01:09:27;100125.00;;;9.42;40.71
56713;BME280;42589;45.536;9.032;2023-02-01T01:12:29;100086.19;;;9.60;39.82
56713;BME280;42589;45.536;9.032;2023-02-01T01:15:38;100133.19;;;9.19;41.28
56713;BME280;42589;45.536;9.032;2023-02-01T01:18:41;100108.66;;;8.56;41.67
56713;BME280;42589;45.536;9.032;2023-02-01T01:21:42;100118.88;;;8.91;41.25
56713;BME280;42589;45.536;9.032;2023-02-01T01:24:43;100111.38;;;9.06;40.82
56713;BME280;42589;45.536;9.032;2023-02-01T01:27:44;100121.97;;;9.66;39.78
56713;BME280;42589;45.536;9.032;2023-02-01T01:30:45;100132.22;;;9.11;40.67
56713;BME280;42589;45.536;9.032;2023-02-01T01:33:51;100109.75;;;8.84;40.84
56713;BME280;42589;45.536;9.032;2023-02-01T01:36:53;100121.88;;;9.07;40.48
56713;BME280;42589;45.536;9.032;2023-02-01T01:39:53;100119.81;;;9.21;40.27
56713;BME280;42589;45.536;9.032;2023-02-01T01:42:56;100125.28;;;8.58;41.36
56713;BME280;42589;45.536;9.032;2023-02-01T01:45:57;100098.41;;;9.13;40.20
56713;BME280;42589;45.536;9.032;2023-02-01T01:52:05;100110.78;;;10.11;37.87
56713;BME280;42589;45.536;9.032;2023-02-01T01:55:07;100104.66;;;9.91;38.56
56713;BME280;42589;45.536;9.032;2023-02-01T01:58:12;100113.88;;;9.77;38.84
56713;BME280;42589;45.536;9.032;2023-02-01T02:01:15;100112.34;;;9.55;38.85
56713;BME280;42589;45.536;9.032;2023-02-01T02:04:16;100092.78;;;9.85;38.67
56713;BME280;42589;45.536;9.032;2023-02-01T02:07:22;100079.78;;;9.72;38.49
56713;BME280;42589;45.536;9.032;2023-02-01T02:10:25;100040.81;;;9.53;38.37
56713;BME280;42589;45.536;9.032;2023-02-01T02:13:49;100100.47;;;9.69;38.69
56713;BME280;42589;45.536;9.032;2023-02-01T02:37:46;100092.50;;;9.79;38.10
56713;BME280;42589;45.536;9.032;2023-02-01T02:40:50;100090.09;;;9.37;38.53
56713;BME280;42589;45.536;9.032;2023-02-01T02:43:55;100064.41;;;9.66;37.40
56713;BME280;42589;45.536;9.032;2023-02-01T02:47:24;100081.31;;;9.65;38.64
56713;BME280;42589;45.536;9.032;2023-02-01T02:50:37;100089.63;;;9.12;38.85
56713;BME280;42589;45.536;9.032;2023-02-01T02:54:06;100086.50;;;8.97;38.84
56713;BME280;42589;45.536;9.032;2023-02-01T02:57:33;100087.38;;;8.67;39.53
56713;BME280;42589;45.536;9.032;2023-02-01T03:00:54;100093.41;;;9.29;38.99
56713;BME280;42589;45.536;9.032;2023-02-01T03:04:15;100081.66;;;7.78;41.14
56713;BME280;42589;45.536;9.032;2023-02-01T03:14:47;100066.75;;;7.98;40.19
56713;BME280;42589;45.536;9.032;2023-02-01T03:17:50;100085.72;;;7.61;41.25
56713;BME280;42589;45.536;9.032;2023-02-01T03:20:53;100060.59;;;7.77;40.75
56713;BME280;42589;45.536;9.032;2023-02-01T03:24:01;100062.88;;;8.23;39.82
56713;BME280;42589;45.536;9.032;2023-02-01T03:27:22;100083.13;;;9.84;37.17
56713;BME280;42589;45.536;9.032;2023-02-01T03:30:43;100075.16;;;9.94;36.55
56713;BME280;42589;45.536;9.032;2023-02-01T03:33:44;100079.91;;;9.90;36.43
56713;BME280;42589;45.536;9.032;2023-02-01T03:36:50;100079.22;;;9.88;37.03
56713;BME280;42589;45.536;9.032;2023-02-01T03:40:11;100080.59;;;10.12;36.64
56713;BME280;42589;45.536;9.032;2023-02-01T03:43:17;100069.72;;;9.66;36.66
56713;BME280;42589;45.536;9.032;2023-02-01T03:46:29;100078.66;;;9.75;36.75
56713;BME280;42589;45.536;9.032;2023-02-01T03:49:39;100059.63;;;9.89;36.56
56713;BME280;42589;45.536;9.032;2023-02-01T03:52:47;100048.19;;;9.89;35.73
56713;BME280;42589;45.536;9.032;2023-02-01T03:55:52;100054.50;;;9.68;36.82
56713;BME280;42589;45.536;9.032;2023-02-01T03:58:53;100074.75;;;9.50;37.18
56713;BME280;42589;45.536;9.032;2023-02-01T04:02:00;100072.38;;;9.66;36.61
56713;BME280;42589;45.536;9.032;2023-02-01T04:05:01;100064.50;;;9.16;37.05
56713;BME280;42589;45.536;9.032;2023-02-01T04:08:02;100071.09;;;9.61;37.04
56713;BME280;42589;45.536;9.032;2023-02-01T04:11:05;100069.69;;;10.05;36.08
56713;BME280;42589;45.536;9.032;2023-02-01T04:14:06;100045.25;;;9.82;36.70
56713;BME280;42589;45.536;9.032;2023-02-01T04:17:07;100030.84;;;9.94;35.90
56713;BME280;42589;45.536;9.032;2023-02-01T04:20:08;100068.66;;;10.26;36.19
56713;BME280;42589;45.536;9.032;2023-02-01T04:23:10;100074.41;;;10.11;36.17
56713;BME280;42589;45.536;9.032;2023-02-01T04:26:10;100048.44;;;10.05;36.32
56713;BME280;42589;45.536;9.032;2023-02-01T04:29:12;100068.03;;;9.75;36.45
56713;BME280;42589;45.536;9.032;2023-02-01T04:32:13;100062.44;;;9.97;36.01
56713;BME280;42589;45.536;9.032;2023-02-01T04:35:14;100078.25;;;9.99;37.10
56713;BME280;42589;45.536;9.032;2023-02-01T04:38:14;100066.94;;;9.68;36.74
56713;BME280;42589;45.536;9.032;2023-02-01T04:41:15;100055.34;;;9.69;36.21
56713;BME280;42589;45.536;9.032;2023-02-01T04:44:19;100084.41;;;9.90;37.08
56713;BME280;42589;45.536;9.032;2023-02-01T04:47:20;100087.34;;;9.87;36.32
56713;BME280;42589;45.536;9.032;2023-02-01T04:50:20;100052.53;;;9.61;36.42
56713;BME280;42589;45.536;9.032;2023-02-01T04:53:21;100045.00;;;9.66;36.69
56713;BME280;42589;45.536;9.032;2023-02-01T04:56:23;100070.25;;;9.31;37.30
56713;BME280;42589;45.536;9.032;2023-02-01T04:59:24;100048.03;;;9.22;37.39
56713;BME280;42589;45.536;9.032;2023-02-01T05:02:25;100098.78;;;9.77;36.69
56713;BME280;42589;45.536;9.032;2023-02-01T05:05:27;100094.31;;;9.49;37.58
56713;BME280;42589;45.536;9.032;2023-02-01T05:08:27;100107.44;;;9.80;36.77
56713;BME280;42589;45.536;9.032;2023-02-01T05:11:28;100092.78;;;9.66;36.79
56713;BME280;42589;45.536;9.032;2023-02-01T05:14:48;100091.94;;;9.65;36.85
56713;BME280;42589;45.536;9.032;2023-02-01T05:17:49;100100.03;;;9.73;36.71
56713;BME280;42589;45.536;9.032;2023-02-01T05:20:50;100099.75;;;9.86;36.89
56713;BME280;42589;45.536;9.032;2023-02-01T05:23:57;100094.59;;;9.75;36.97
56713;BME280;42589;45.536;9.032;2023-02-01T05:27:10;100087.63;;;9.64;36.88
56713;BME280;42589;45.536;9.032;2023-02-01T05:30:13;100095.69;;;9.63;36.82
56713;BME280;42589;45.536;9.032;2023-02-01T05:33:14;100080.06;;;9.50;37.41
56713;BME280;42589;45.536;9.032;2023-02-01T05:36:15;100067.34;;;9.44;37.30
56713;BME280;42589;45.536;9.032;2023-02-01T05:39:17;100087.03;;;9.61;37.20
56713;BME280;42589;45.536;9.032;2023-02-01T05:42:17;100075.72;;;9.39;37.11
56713;BME280;42589;45.536;9.032;2023-02-01T05:45:18;100070.25;;;9.41;37.27
56713;BME280;42589;45.536;9.032;2023-02-01T05:48:20;100102.75;;;9.14;37.71
56713;BME280;42589;45.536;9.032;2023-02-01T05:51:20;100101.06;;;9.13;37.75
56713;BME280;42589;45.536;9.032;2023-02-01T05:54:21;100084.91;;;9.25;38.26
56713;BME280;42589;45.536;9.032;2023-02-01T05:57:22;100104.47;;;9.34;37.05
56713;BME280;42589;45.536;9.032;2023-02-01T06:00:24;100063.53;;;9.17;37.55
56713;BME280;42589;45.536;9.032;2023-02-01T06:03:24;100105.47;;;9.52;37.68
56713;BME280;42589;45.536;9.032;2023-02-01T06:06:26;100073.03;;;9.20;38.00
56713;BME280;42589;45.536;9.032;2023-02-01T06:09:28;100062.16;;;9.23;37.70
56713;BME280;42589;45.536;9.032;2023-02-01T06:12:29;100072.78;;;9.23;37.82
56713;BME280;42589;45.536;9.032;2023-02-01T06:15:30;100096.25;;;9.37;38.06
56713;BME280;42589;45.536;9.032;2023-02-01T06:18:32;100090.63;;;9.21;37.92
56713;BME280;42589;45.536;9.032;2023-02-01T06:21:33;100041.47;;;9.07;38.58
56713;BME280;42589;45.536;9.032;2023-02-01T06:24:35;100035.56;;;8.94;38.15
56713;BME280;42589;45.536;9.032;2023-02-01T06:27:35;100062.09;;;9.03;38.79
56713;BME280;42589;45.536;9.032;2023-02-01T06:30:36;100081.69;;;9.32;37.67
56713;BME280;42589;45.536;9.032;2023-02-01T06:33:37;100091.63;;;9.29;37.92
56713;BME280;42589;45.536;9.032;2023-02-01T06:36:38;100069.94;;;9.05;38.17
56713;BME280;42589;45.536;9.032;2023-02-01T06:39:40;100076.25;;;9.23;38.13
56713;BME280;42589;45.536;9.032;2023-02-01T06:42:41;100098.88;;;9.27;38.11
56713;BME280;42589;45.536;9.032;2023-02-01T06:45:46;100062.53;;;9.09;37.90
56713;BME280;42589;45.536;9.032;2023-02-01T06:48:47;100030.28;;;9.03;37.54
56713;BME280;42589;45.536;9.032;2023-02-01T06:51:49;100084.94;;;9.45;37.41
56713;BME280;42589;45.536;9.032;2023-02-01T06:54:50;100098.31;;;9.24;38.08
56713;BME280;42589;45.536;9.032;2023-02-01T06:57:54;100111.06;;;9.49;38.56
56713;BME280;42589;45.536;9.032;2023-02-01T07:00:55;100094.88;;;8.93;38.57
56713;BME280;42589;45.536;9.032;2023-02-01T07:03:56;100083.34;;;8.42;38.83
56713;BME280;42589;45.536;9.032;2023-02-01T07:06:57;100098.59;;;8.80;39.69
56713;BME280;42589;45.536;9.032;2023-02-01T07:09:59;100123.75;;;9.36;38.00
56713;BME280;42589;45.536;9.032;2023-02-01T07:13:00;100123.22;;;9.52;38.06
56713;BME280;42589;45.536;9.032;2023-02-01T07:16:03;100146.41;;;9.60;38.18
56713;BME280;42589;45.536;9.032;2023-02-01T07:19:05;100140.25;;;9.40;38.55
56713;BME280;42589;45.536;9.032;2023-02-01T07:22:06;100142.38;;;9.65;37.60
56713;BME280;42589;45.536;9.032;2023-02-01T07:25:07;100148.25;;;9.79;37.26
56713;BME280;42589;45.536;9.032;2023-02-01T07:28:09;100103.66;;;9.63;37.33
56713;BME280;42589;45.536;9.032;2023-02-01T07:31:14;100114.44;;;9.81;37.42
56713;BME280;42589;45.536;9.032;2023-02-01T07:34:22;100137.63;;;9.98;36.93
56713;BME280;42589;45.536;9.032;2023-02-01T07:37:24;100142.66;;;10.01;36.63
56713;BME280;42589;45.536;9.032;2023-02-01T07:40:25;100133.31;;;10.26;36.25
56713;BME280;42589;45.536;9.032;2023-02-01T07:43:29;100141.97;;;10.18;36.33
56713;BME280;42589;45.536;9.032;2023-02-01T07:46:29;100131.53;;;10.64;35.78
56713;BME280;42589;45.536;9.032;2023-02-01T07:49:30;100150.16;;;10.64;35.41
56713;BME280;42589;45.536;9.032;2023-02-01T07:52:32;100150.13;;;10.74;35.01
56713;BME280;42589;45.536;9.032;2023-02-01T07:55:33;100152.59;;;10.38;35.97
56713;BME280;42589;45.536;9.032;2023-02-01T07:58:36;100157.69;;;10.68;35.18
56713;BME280;42589;45.536;9.032;2023-02-01T08:01:37;100155.03;;;11.06;35.10
56713;BME280;42589;45.536;9.032;2023-02-01T08:04:38;100118.78;;;11.05;34.93
56713;BME280;42589;45.536;9.032;2023-02-01T08:07:39;100157.09;;;11.12;35.14
56713;BME280;42589;45.536;9.032;2023-02-01T08:10:41;100133.47;;;11.09;35.04
56713;BME280;42589;45.536;9.032;2023-02-01T08:13:42;100151.97;;;11.28;35.47
56713;BME280;42589;45.536;9.032;2023-02-01T08:16:44;100160.97;;;11.55;35.17
56713;BME280;42589;45.536;9.032;2023-02-01T08:19:45;100145.50;;;11.58;34.35
56713;BME280;42589;45.536;9.032;2023-02-01T08:22:46;100148.47;;;11.73;34.38
56713;BME280;42589;45.536;9.032;2023-02-01T08:25:48;100142.06;;;12.12;33.74
56713;BME280;42589;45.536;9.032;2023-02-01T08:29:01;100155.50;;;12.28;34.29
56713;BME280;42589;45.536;9.032;2023-02-01T08:32:04;100162.19;;;12.32;33.43
56713;BME280;42589;45.536;9.032;2023-02-01T08:35:05;100154.91;;;11.98;34.12
56713;BME280;42589;45.536;9.032;2023-02-01T08:38:06;100174.88;;;12.56;33.81
56713;BME280;42589;45.536;9.032;2023-02-01T08:41:17;100171.09;;;12.67;33.76
56713;BME280;42589;45.536;9.032;2023-02-01T08:44:18;100181.16;;;12.11;34.14
56713;BME280;42589;45.536;9.032;2023-02-01T08:47:19;100171.66;;;12.52;34.41
56713;BME280;42589;45.536;9.032;2023-02-01T08:50:21;100156.84;;;12.50;34.41
56713;BME280;42589;45.536;9.032;2023-02-01T08:53:22;100154.25;;;11.96;35.09
56713;BME280;42589;45.536;9.032;2023-02-01T08:56:23;100173.97;;;12.73;34.66
56713;BME280;42589;45.536;9.032;2023-02-01T08:59:24;100159.81;;;12.47;34.59
56713;BME280;42589;45.536;9.032;2023-02-01T09:02:26;100122.84;;;12.52;34.46
56713;BME280;42589;45.536;9.032;2023-02-01T09:05:26;100172.97;;;12.48;35.06
56713;BME280;42589;45.536;9.032;2023-02-01T09:08:28;100162.66;;;13.06;34.50
56713;BME280;42589;45.536;9.032;2023-02-01T09:11:29;100166.72;;;13.52;33.49
56713;BME280;42589;45.536;9.032;2023-02-01T09:14:30;100123.25;;;12.99;33.97
56713;BME280;42589;45.536;9.032;2023-02-01T09:17:31;100151.69;;;13.51;33.47
56713;BME280;42589;45.536;9.032;2023-02-01T09:20:32;100128.00;;;13.48;33.80
56713;BME280;42589;45.536;9.032;2023-02-01T09:23:34;100176.75;;;13.66;34.19
56713;BME280;42589;45.536;9.032;2023-02-01T09:26:36;100174.69;;;13.10;34.85
56713;BME280;42589;45.536;9.032;2023-02-01T09:29:37;100164.25;;;12.64;35.46
56713;BME280;42589;45.536;9.032;2023-02-01T09:32:38;100150.91;;;13.91;33.51
56713;BME280;42589;45.536;9.032;2023-02-01T09:35:39;100149.44;;;14.05;32.91
56713;BME280;42589;45.536;9.032;2023-02-01T09:38:41;100158.72;;;13.60;33.15
56713;BME280;42589;45.536;9.032;2023-02-01T09:42:12;100173.84;;;14.59;32.00
56713;BME280;42589;45.536;9.032;2023-02-01T09:48:42;100166.13;;;15.28;30.92
56713;BME280;42589;45.536;9.032;2023-02-01T09:51:48;100184.16;;;15.43;30.32
56713;BME280;42589;45.536;9.032;2023-02-01T09:54:54;100138.25;;;15.46;29.51
56713;BME280;42589;45.536;9.032;2023-02-01T09:58:06;100144.97;;;15.02;30.14
56713;BME280;42589;45.536;9.032;2023-02-01T10:01:19;100172.66;;;15.96;29.23
56713;BME280;42589;45.536;9.032;2023-02-01T10:04:20;100166.88;;;16.31;28.81
56713;BME280;42589;45.536;9.032;2023-02-01T10:11:21;100183.63;;;15.87;30.09
56713;BME280;42589;45.536;9.032;2023-02-01T10:21:43;100168.22;;;16.87;30.59
56713;BME280;42589;45.536;9.032;2023-02-01T10:25:00;100147.13;;;16.23;30.77
56713;BME280;42589;45.536;9.032;2023-02-01T10:28:03;100173.44;;;14.95;35.30
56713;BME280;42589;45.536;9.032;2023-02-01T10:31:05;100185.56;;;16.39;33.68
56713;BME280;42589;45.536;9.032;2023-02-01T10:34:31;100179.28;;;16.09;35.16
56713;BME280;42589;45.536;9.032;2023-02-01T10:37:34;100193.84;;;17.20;34.12
56713;BME280;42589;45.536;9.032;2023-02-01T10:40:37;100157.28;;;16.89;34.32
56713;BME280;42589;45.536;9.032;2023-02-01T10:43:38;100128.50;;;15.84;36.06
56713;BME280;42589;45.536;9.032;2023-02-01T10:46:39;100187.53;;;17.27;34.31
56713;BME280;42589;45.536;9.032;2023-02-01T10:50:02;100190.03;;;16.23;37.26
56713;BME280;42589;45.536;9.032;2023-02-01T10:53:31;100160.75;;;17.34;35.53
56713;BME280;42589;45.536;9.032;2023-02-01T10:56:38;100189.09;;;15.93;39.09
56713;BME280;42589;45.536;9.032;2023-02-01T10:59:39;100156.50;;;16.80;37.13
56713;BME280;42589;45.536;9.032;2023-02-01T11:02:40;100181.06;;;17.22;36.50
56713;BME280;42589;45.536;9.032;2023-02-01T11:05:45;100143.38;;;16.33;38.43
56713;BME280;42589;45.536;9.032;2023-02-01T11:12:27;100171.66;;;17.77;36.23
56713;BME280;42589;45.536;9.032;2023-02-01T11:15:29;100169.53;;;18.37;35.75
56713;BME280;42589;45.536;9.032;2023-02-01T11:18:34;100157.91;;;17.72;36.59
56713;BME280;42589;45.536;9.032;2023-02-01T11:21:36;100117.56;;;18.08;35.80
56713;BME280;42589;45.536;9.032;2023-02-01T11:24:37;100150.13;;;18.20;35.90
56713;BME280;42589;45.536;9.032;2023-02-01T11:27:58;100142.97;;;17.33;37.21
56713;BME280;42589;45.536;9.032;2023-02-01T11:31:03;100111.28;;;17.79;36.39
56713;BME280;42589;45.536;9.032;2023-02-01T11:34:10;100117.16;;;18.39;35.53
56713;BME280;42589;45.536;9.032;2023-02-01T11:37:26;100121.59;;;18.47;35.36
56713;BME280;42589;45.536;9.032;2023-02-01T11:40:34;100129.97;;;18.93;34.77
56713;BME280;42589;45.536;9.032;2023-02-01T11:43:37;100097.75;;;18.44;34.60
56713;BME280;42589;45.536;9.032;2023-02-01T11:46:38;100119.56;;;18.27;34.48
56713;BME280;42589;45.536;9.032;2023-02-01T11:49:39;100116.63;;;18.01;34.36
56713;BME280;42589;45.536;9.032;2023-02-01T11:56:34;100095.59;;;17.83;35.20
56713;BME280;42589;45.536;9.032;2023-02-01T12:00:08;100092.03;;;18.82;33.14
56713;BME280;42589;45.536;9.032;2023-02-01T12:06:54;100093.91;;;18.88;32.89
56713;BME280;42589;45.536;9.032;2023-02-01T12:16:27;100088.59;;;19.01;31.68
56713;BME280;42589;45.536;9.032;2023-02-01T12:26:23;100038.91;;;18.69;32.22
56713;BME280;42589;45.536;9.032;2023-02-01T12:29:33;100058.47;;;19.45;31.10
56713;BME280;42589;45.536;9.032;2023-02-01T12:36:09;100058.22;;;18.79;31.67
56713;BME280;42589;45.536;9.032;2023-02-01T12:42:39;100038.38;;;18.87;31.49
56713;BME280;42589;45.536;9.032;2023-02-01T12:45:54;100033.38;;;19.38;30.80
56713;BME280;42589;45.536;9.032;2023-02-01T12:49:01;100045.53;;;19.14;31.43
56713;BME280;42589;45.536;9.032;2023-02-01T12:52:11;100044.25;;;19.04;31.40
56713;BME280;42589;45.536;9.032;2023-02-01T12:55:22;100045.78;;;19.26;31.45
56713;BME280;42589;45.536;9.032;2023-02-01T12:58:44;100043.13;;;18.78;31.81
56713;BME280;42589;45.536;9.032;2023-02-01T13:01:56;100036.56;;;19.68;30.96
56713;BME280;42589;45.536;9.032;2023-02-01T13:05:16;100027.28;;;19.10;31.63
56713;BME280;42589;45.536;9.032;2023-02-01T13:12:06;100015.75;;;19.36;31.44
56713;BME280;42589;45.536;9.032;2023-02-01T13:15:33;100020.47;;;18.31;33.61
56713;BME280;42589;45.536;9.032;2023-02-01T13:18:39;100019.69;;;18.09;34.07
56713;BME280;42589;45.536;9.032;2023-02-01T13:22:09;100003.22;;;19.08;33.01
56713;BME280;42589;45.536;9.032;2023-02-01T13:25:16;100001.69;;;20.13;31.34
56713;BME280;42589;45.536;9.032;2023-02-01T13:31:52;99997.97;;;20.08;32.05
56713;BME280;42589;45.536;9.032;2023-02-01T13:35:51;99994.56;;;19.13;32.97
56713;BME280;42589;45.536;9.032;2023-02-01T13:42:18;99972.72;;;18.12;35.02
56713;BME280;42589;45.536;9.032;2023-02-01T13:45:23;99944.44;;;19.52;33.01
56713;BME280;42589;45.536;9.032;2023-02-01T13:48:26;99988.16;;;19.47;33.49
56713;BME280;42589;45.536;9.032;2023-02-01T13:51:47;99976.16;;;17.99;35.73
56713;BME280;42589;45.536;9.032;2023-02-01T13:55:02;99991.50;;;20.15;32.87
56713;BME280;42589;45.536;9.032;2023-02-01T13:58:20;99985.25;;;19.22;34.04
56713;BME280;42589;45.536;9.032;2023-02-01T14:04:47;99982.91;;;19.12;34.35
56713;BME280;42589;45.536;9.032;2023-02-01T14:11:05;99971.81;;;18.74;34.77
56713;BME280;42589;45.536;9.032;2023-02-01T14:17:33;99990.47;;;18.06;35.92
56713;BME280;42589;45.536;9.032;2023-02-01T14:20:42;99963.09;;;19.46;34.09
56713;BME280;42589;45.536;9.032;2023-02-01T14:27:29;99950.66;;;19.45;33.94
56713;BME280;42589;45.536;9.032;2023-02-01T14:30:31;99976.13;;;18.62;35.16
56713;BME280;42589;45.536;9.032;2023-02-01T14:33:32;99964.16;;;19.99;33.05
56713;BME280;42589;45.536;9.032;2023-02-01T14:36:50;99987.66;;;18.97;35.15
56713;BME280;42589;45.536;9.032;2023-02-01T14:40:01;99988.78;;;18.33;36.06
56713;BME280;42589;45.536;9.032;2023-02-01T14:43:02;99981.13;;;19.46;34.07
56713;BME280;42589;45.536;9.032;2023-02-01T14:46:04;99973.50;;;19.69;33.83
56713;BME280;42589;45.536;9.032;2023-02-01T14:49:05;99990.66;;;19.35;34.86
56713;BME280;42589;45.536;9.032;2023-02-01T14:52:11;99991.38;;;18.54;35.82
56713;BME280;42589;45.536;9.032;2023-02-01T14:55:45;99988.44;;;19.72;34.34
56713;BME280;42589;45.536;9.032;2023-02-01T14:58:56;99990.47;;;20.30;33.32
56713;BME280;42589;45.536;9.032;2023-02-01T15:02:00;99966.75;;;18.58;35.52
56713;BME280;42589;45.536;9.032;2023-02-01T15:05:01;99985.22;;;18.67;35.43
56713;BME280;42589;45.536;9.032;2023-02-01T15:08:14;99984.06;;;18.76;35.66
56713;BME280;42589;45.536;9.032;2023-02-01T15:11:17;99976.78;;;19.45;34.11
56713;BME280;42589;45.536;9.032;2023-02-01T15:14:18;99958.47;;;19.07;34.34
56713;BME280;42589;45.536;9.032;2023-02-01T15:17:22;99946.44;;;18.14;35.78
56713;BME280;42589;45.536;9.032;2023-02-01T15:20:31;99981.94;;;18.65;35.48
56713;BME280;42589;45.536;9.032;2023-02-01T15:23:33;99951.91;;;19.89;33.09
56713;BME280;42589;45.536;9.032;2023-02-01T15:26:34;99969.94;;;19.56;33.97
56713;BME280;42589;45.536;9.032;2023-02-01T15:29:35;99976.78;;;19.58;34.00
56713;BME280;42589;45.536;9.032;2023-02-01T15:32:38;99983.00;;;19.59;33.90
56713;BME280;42589;45.536;9.032;2023-02-01T15:35:49;99975.84;;;18.98;34.77
56713;BME280;42589;45.536;9.032;2023-02-01T15:39:22;99986.53;;;19.46;34.17
56713;BME280;42589;45.536;9.032;2023-02-01T15:42:25;99980.22;;;19.06;35.02
56713;BME280;42589;45.536;9.032;2023-02-01T15:45:31;99987.16;;;19.48;34.10
56713;BME280;42589;45.536;9.032;2023-02-01T15:48:43;99961.00;;;17.91;36.37
56713;BME280;42589;45.536;9.032;2023-02-01T15:51:46;99985.28;;;19.48;33.65
56713;BME280;42589;45.536;9.032;2023-02-01T15:54:52;99981.13;;;19.39;33.63
56713;BME280;42589;45.536;9.032;2023-02-01T15:57:54;99977.44;;;19.67;33.27
56713;BME280;42589;45.536;9.032;2023-02-01T16:00:59;99990.25;;;19.58;33.52
56713;BME280;42589;45.536;9.032;2023-02-01T16:04:10;99983.22;;;19.51;33.50
56713;BME280;42589;45.536;9.032;2023-02-01T16:08:01;100003.25;;;19.21;34.11
56713;BME280;42589;45.536;9.032;2023-02-01T16:11:31;100006.03;;;19.61;33.53
56713;BME280;42589;45.536;9.032;2023-02-01T16:14:32;99965.72;;;19.07;33.84
56713;BME280;42589;45.536;9.032;2023-02-01T16:17:32;99996.19;;;19.07;33.99
56713;BME280;42589;45.536;9.032;2023-02-01T16:20:34;99953.44;;;18.77;34.13
56713;BME280;42589;45.536;9.032;2023-02-01T16:23:36;100014.00;;;19.01;34.46
56713;BME280;42589;45.536;9.032;2023-02-01T16:26:37;100017.88;;;18.51;35.09
56713;BME280;42589;45.536;9.032;2023-02-01T16:29:38;99981.41;;;18.48;34.82
56713;BME280;42589;45.536;9.032;2023-02-01T16:32:40;99998.69;;;18.67;34.77
56713;BME280;42589;45.536;9.032;2023-02-01T16:35:41;100014.09;;;18.45;35.05
56713;BME280;42589;45.536;9.032;2023-02-01T16:38:43;100027.88;;;18.64;34.98
56713;BME280;42589;45.536;9.032;2023-02-01T16:41:45;100013.53;;;18.50;34.93
56713;BME280;42589;45.536;9.032;2023-02-01T16:44:48;99996.72;;;18.13;35.21
56713;BME280;42589;45.536;9.032;2023-02-01T16:47:54;100005.75;;;18.27;35.30
56713;BME280;42589;45.536;9.032;2023-02-01T16:51:02;100035.34;;;18.27;35.73
56713;BME280;42589;45.536;9.032;2023-02-01T16:54:03;100019.38;;;17.97;35.75
56713;BME280;42589;45.536;9.032;2023-02-01T16:57:13;100025.31;;;17.86;36.18
56713;BME280;42589;45.536;9.032;2023-02-01T17:00:14;100026.66;;;17.54;36.44
56713;BME280;42589;45.536;9.032;2023-02-01T17:03:18;100044.91;;;17.44;36.87
56713;BME280;42589;45.536;9.032;2023-02-01T17:06:22;100055.22;;;17.61;36.72
56713;BME280;42589;45.536;9.032;2023-02-01T17:09:24;100056.66;;;17.57;36.77
56713;BME280;42589;45.536;9.032;2023-02-01T17:12:30;100013.38;;;16.94;37.21
56713;BME280;42589;45.536;9.032;2023-02-01T17:15:34;100065.41;;;17.66;36.58
56713;BME280;42589;45.536;9.032;2023-02-01T17:18:38;100060.88;;;17.67;36.43
56713;BME280;42589;45.536;9.032;2023-02-01T17:21:43;100074.22;;;17.60;36.48
56713;BME280;42589;45.536;9.032;2023-02-01T17:24:44;100066.63;;;17.42;36.48
56713;BME280;42589;45.536;9.032;2023-02-01T17:27:45;100056.66;;;17.21;36.94
56713;BME280;42589;45.536;9.032;2023-02-01T17:30:46;100073.06;;;17.26;37.00
56713;BME280;42589;45.536;9.032;2023-02-01T17:33:47;100062.25;;;16.60;37.68
56713;BME280;42589;45.536;9.032;2023-02-01T17:36:49;100048.88;;;16.08;38.50
56713;BME280;42589;45.536;9.032;2023-02-01T17:39:50;100066.13;;;16.28;38.62
56713;BME280;42589;45.536;9.032;2023-02-01T17:42:54;100052.88;;;16.27;38.29
56713;BME280;42589;45.536;9.032;2023-02-01T17:46:01;100075.16;;;15.12;40.17
56713;BME280;42589;45.536;9.032;2023-02-01T17:49:03;100069.13;;;15.41;39.77
56713;BME280;42589;45.536;9.032;2023-02-01T17:52:05;100055.78;;;15.10;39.64
56713;BME280;42589;45.536;9.032;2023-02-01T17:55:26;100067.22;;;14.96;39.65
56713;BME280;42589;45.536;9.032;2023-02-01T17:58:26;100033.44;;;14.39;40.57